Time;durP1;ratioP1;P1;durP2;ratioP2;P2;SDS_P1;SDS_P2;PMS_P1;PMS_P2;Temp;Humidity;BMP_temperature;BMP_pressure;BME280_temperature;BME280_humidity;BME280_pressure;Samples;Min_cycle;Max_cycle;Signal;HPM_P1;HPM_P2
2022/01/21 00:01:21;;;;;;;9.43;8.53;;;;;;;23.31;23.25;94809.38;7290259;19;137140;-53
2022/01/21 00:03:47;;;;;;;8.57;7.77;;;;;;;23.30;23.77;94821.13;7280260;19;136928;-54
2022/01/21 00:06:13;;;;;;;8.20;7.50;;;;;;;23.30;23.85;94832.56;7292208;19;137939;-53
2022/01/21 00:08:41;;;;;;;9.13;8.33;;;;;;;23.30;23.85;94827.25;7294628;19;137261;-53
2022/01/21 00:11:08;;;;;;;8.80;7.90;;;;;;;23.31;24.07;94836.03;7293565;19;137570;-53
2022/01/21 00:13:34;;;;;;;8.83;8.03;;;;;;;23.30;23.43;94839.78;7301896;19;137023;-57
2022/01/21 00:16:08;;;;;;;8.43;7.63;;;;;;;23.31;23.39;94834.16;7288847;19;137160;-53
2022/01/21 00:18:37;;;;;;;8.90;8.10;;;;;;;23.31;23.75;94833.38;7301546;19;138171;-52
2022/01/21 00:32:03;;;;;;;9.37;8.27;;;;;;;23.29;23.50;94854.22;7299840;19;136883;-53
2022/01/21 00:34:29;;;;;;;8.00;7.30;;;;;;;23.28;23.57;94849.97;7301367;19;137613;-52
2022/01/21 00:36:54;;;;;;;8.13;7.43;;;;;;;23.28;23.38;94857.97;7286861;19;137682;-53
2022/01/21 00:39:23;;;;;;;7.57;6.97;;;;;;;23.28;23.36;94861.44;7299666;19;137395;-52
2022/01/21 00:44:24;;;;;;;7.90;7.20;;;;;;;23.28;23.45;94868.66;7300782;19;138497;-51
2022/01/21 00:46:49;;;;;;;8.47;7.77;;;;;;;23.28;23.76;94872.09;7286689;19;138339;-52
2022/01/21 00:49:16;;;;;;;8.93;8.17;;;;;;;23.27;23.69;94878.53;7299435;19;137493;-51
2022/01/21 00:51:42;;;;;;;8.43;7.73;;;;;;;23.26;23.94;94873.50;7299921;19;137723;-51
2022/01/21 00:54:07;;;;;;;8.00;7.30;;;;;;;23.27;23.70;94878.53;7299841;19;137057;-54
2022/01/21 00:56:33;;;;;;;7.90;7.20;;;;;;;23.26;23.76;94874.28;7299999;19;137683;-55
2022/01/21 00:58:59;;;;;;;8.20;7.50;;;;;;;23.26;23.29;94876.94;7285952;19;137987;-51
2022/01/21 01:01:24;;;;;;;8.50;7.80;;;;;;;23.27;23.70;94870.53;7296141;19;137045;-52
2022/01/21 01:03:50;;;;;;;8.00;7.40;;;;;;;23.27;23.79;94894.50;7299780;19;137050;-52
2022/01/21 01:06:16;;;;;;;8.70;7.90;;;;;;;23.27;23.81;94872.41;7296443;19;136847;-52
2022/01/21 01:08:41;;;;;;;8.40;7.70;;;;;;;23.26;23.36;94881.50;7296179;19;138059;-53
2022/01/21 01:21:45;;;;;;;7.80;7.10;;;;;;;23.27;23.81;94885.72;7285777;19;136877;-53
2022/01/21 01:29:25;;;;;;;8.17;7.43;;;;;;;23.27;23.29;94872.41;7300880;19;137802;-55
2022/01/21 01:31:52;;;;;;;8.10;7.40;;;;;;;23.28;23.35;94887.31;7284073;19;137175;-51
2022/01/21 01:34:18;;;;;;;7.87;7.17;;;;;;;23.28;23.53;94880.09;7298952;19;136749;-52
2022/01/21 01:36:46;;;;;;;8.27;7.57;;;;;;;23.27;23.94;94880.41;7298556;19;139108;-51
2022/01/21 01:39:17;;;;;;;8.10;7.30;;;;;;;23.28;23.44;94881.97;7297857;19;137341;-53
2022/01/21 01:41:55;;;;;;;7.33;6.73;;;;;;;23.29;23.55;94878.22;7283645;19;137589;-54
2022/01/21 01:49:49;;;;;;;8.40;7.30;;;;;;;23.26;23.72;94878.84;7298376;19;137089;-53
2022/01/21 01:52:17;;;;;;;7.70;7.00;;;;;;;23.26;23.81;94865.50;7297452;19;136972;-52
2022/01/21 01:54:51;;;;;;;6.77;6.20;;;;;;;23.26;23.67;94873.50;7284797;19;137700;-53
2022/01/21 01:57:17;;;;;;;7.17;6.57;;;;;;;23.24;23.69;94863.16;7298488;19;136935;-53
2022/01/21 01:59:43;;;;;;;6.80;6.20;;;;;;;23.25;23.78;94866.59;7297864;19;137310;-53
2022/01/21 02:02:12;;;;;;;7.50;6.90;;;;;;;23.25;23.62;94878.06;7297775;19;137866;-53
2022/01/21 02:04:38;;;;;;;8.60;7.80;;;;;;;23.25;24.32;94878.06;7283702;19;136779;-55
2022/01/21 02:07:04;;;;;;;7.77;7.10;;;;;;;23.24;24.18;94876.47;7295755;19;137187;-53
2022/01/21 02:09:30;;;;;;;7.30;6.70;;;;;;;23.24;23.93;94881.03;7298355;19;137750;-53
2022/01/21 02:11:56;;;;;;;7.20;6.50;;;;;;;23.24;24.12;94870.38;7297829;19;137118;-54
2022/01/21 02:14:28;;;;;;;6.70;6.03;;;;;;;23.23;24.11;94874.13;7296225;19;136991;-52
2022/01/21 02:22:33;;;;;;;6.00;5.50;;;;;;;23.23;23.91;94879.47;7297176;19;137047;-53
2022/01/21 02:25:11;;;;;;;6.40;5.80;;;;;;;23.23;23.91;94880.25;7296984;19;138884;-52
2022/01/21 02:27:37;;;;;;;6.00;5.50;;;;;;;23.23;24.33;94879.47;7283098;19;137392;-53
2022/01/21 02:30:05;;;;;;;5.73;5.23;;;;;;;23.24;23.81;94878.38;7296053;19;137729;-53
2022/01/21 02:32:31;;;;;;;6.63;6.13;;;;;;;23.22;24.46;94888.56;7296296;19;137381;-54
2022/01/21 02:34:57;;;;;;;6.53;5.97;;;;;;;23.22;24.08;94884.00;7295071;19;138383;-53
2022/01/21 02:37:23;;;;;;;6.87;6.17;;;;;;;23.23;24.54;94888.25;7283098;19;139224;-53
2022/01/21 02:39:49;;;;;;;6.47;5.87;;;;;;;23.23;24.15;94892.78;7297107;19;136915;-52
2022/01/21 02:42:15;;;;;;;6.50;5.97;;;;;;;23.23;24.53;94898.91;7295893;19;137644;-52
2022/01/21 02:44:41;;;;;;;6.70;6.10;;;;;;;23.24;24.20;94913.00;7296691;19;137259;-54
2022/01/21 02:47:08;;;;;;;6.10;5.60;;;;;;;23.24;24.01;94919.13;7297385;19;137178;-53
2022/01/21 02:49:34;;;;;;;6.90;6.30;;;;;;;23.23;24.45;94927.44;7283518;19;138126;-54
2022/01/21 02:52:02;;;;;;;5.90;5.50;;;;;;;23.23;24.21;94916.78;7294581;19;137187;-52
2022/01/21 02:54:34;;;;;;;5.60;5.10;;;;;;;23.24;24.33;94926.34;7296930;19;138240;-52
2022/01/21 02:57:02;;;;;;;5.57;5.07;;;;;;;23.22;24.03;94920.53;7296571;19;137549;-52
2022/01/21 02:59:27;;;;;;;5.90;5.40;;;;;;;23.22;24.03;94918.66;7282477;19;137692;-52
2022/01/21 03:01:53;;;;;;;6.10;5.60;;;;;;;23.24;24.62;94918.34;7293383;19;137087;-53
2022/01/21 03:04:29;;;;;;;5.90;5.40;;;;;;;23.24;24.76;94919.13;7294558;19;136993;-52
2022/01/21 03:06:55;;;;;;;6.07;5.57;;;;;;;23.24;24.50;94918.34;7292638;19;137582;-52
2022/01/21 03:09:20;;;;;;;5.80;5.33;;;;;;;23.24;24.76;94921.00;7297457;19;137796;-54
2022/01/21 03:11:46;;;;;;;6.80;6.10;;;;;;;23.23;24.80;94917.56;7282411;19;137919;-53
2022/01/21 03:14:11;;;;;;;5.77;5.27;;;;;;;23.22;24.06;94912.53;7296162;19;137245;-54
2022/01/21 03:16:37;;;;;;;5.30;4.90;;;;;;;23.23;24.75;94911.44;7295494;19;137626;-53
2022/01/21 03:19:03;;;;;;;5.63;5.23;;;;;;;23.22;24.21;94909.88;7296042;19;137332;-53
2022/01/21 03:21:28;;;;;;;5.33;4.93;;;;;;;23.22;24.82;94920.53;7279889;19;138464;-53
2022/01/21 03:23:55;;;;;;;5.33;4.93;;;;;;;23.22;24.56;94909.88;7296241;19;136996;-53
2022/01/21 03:26:24;;;;;;;5.60;5.10;;;;;;;23.22;24.65;94912.53;7294090;19;139990;-52
2022/01/21 03:28:52;;;;;;;5.20;4.80;;;;;;;23.22;24.34;94912.53;7293374;19;138559;-54
2022/01/21 03:31:19;;;;;;;5.00;4.60;;;;;;;23.22;24.54;94909.88;7295589;19;138010;-52
2022/01/21 03:33:45;;;;;;;5.47;5.07;;;;;;;23.24;24.21;94913.00;7283816;19;137675;-53
2022/01/21 03:36:11;;;;;;;5.30;4.90;;;;;;;23.22;24.50;94909.88;7294431;19;137632;-56
2022/01/21 03:38:38;;;;;;;5.03;4.63;;;;;;;23.24;24.48;94919.13;7295631;19;138879;-53
2022/01/21 03:41:05;;;;;;;4.77;4.37;;;;;;;23.25;24.84;94928.69;7293504;19;137301;-53
2022/01/21 03:43:31;;;;;;;4.80;4.40;;;;;;;23.27;24.85;94933.72;7279975;19;136922;-52
2022/01/21 03:45:57;;;;;;;4.07;3.77;;;;;;;23.27;24.46;94926.50;7294985;19;138184;-51
2022/01/21 03:48:23;;;;;;;5.13;4.73;;;;;;;23.29;24.45;94934.19;7295146;19;138908;-52
2022/01/21 03:50:49;;;;;;;4.03;3.73;;;;;;;23.30;24.52;94941.09;7295207;19;137026;-52
2022/01/21 03:53:14;;;;;;;4.63;4.30;;;;;;;23.31;24.22;94940.00;7294165;19;137790;-53
2022/01/21 03:55:41;;;;;;;4.53;4.13;;;;;;;23.30;24.26;94928.53;7280931;19;137608;-53
2022/01/21 03:58:09;;;;;;;3.90;3.60;;;;;;;23.31;24.76;94929.34;7295128;19;139586;-53
2022/01/21 04:00:39;;;;;;;4.60;4.20;;;;;;;23.33;24.09;94941.25;7293099;19;137571;-53
2022/01/21 04:03:04;;;;;;;4.30;3.87;;;;;;;23.35;24.17;94948.97;7294780;19;136804;-53
2022/01/21 04:05:31;;;;;;;4.00;3.70;;;;;;;23.37;24.18;94941.44;7279578;19;137264;-52
2022/01/21 04:07:57;;;;;;;4.40;4.07;;;;;;;23.39;24.58;94947.25;7293209;19;137208;-55
2022/01/21 04:10:23;;;;;;;4.03;3.73;;;;;;;23.38;24.75;94951.00;7294495;19;138524;-53
2022/01/21 04:12:49;;;;;;;3.80;3.50;;;;;;;23.38;24.43;94959.00;7294439;19;138761;-52
2022/01/21 04:15:15;;;;;;;3.70;3.40;;;;;;;23.38;24.91;94959.00;7292720;19;137518;-51
2022/01/21 04:17:41;;;;;;;3.47;3.17;;;;;;;23.36;24.36;94969.19;7281072;19;137814;-52
2022/01/21 04:20:09;;;;;;;5.60;3.00;;;;;;;23.30;24.98;94976.53;7293553;19;137686;-54
2022/01/21 04:22:35;;;;;;;3.60;3.30;;;;;;;23.20;24.50;94978.72;7288229;19;136559;-51
2022/01/21 04:25:01;;;;;;;2.90;2.67;;;;;;;23.15;24.93;94986.81;7293273;19;137291;-51
2022/01/21 04:27:27;;;;;;;3.70;2.60;;;;;;;23.10;25.31;94980.53;7278585;19;137423;-51
2022/01/21 04:29:53;;;;;;;2.40;2.20;;;;;;;23.08;25.47;94981.94;7292106;19;136915;-52
2022/01/21 04:32:18;;;;;;;2.57;2.37;;;;;;;23.07;25.19;94989.16;7293548;19;137300;-52
2022/01/21 04:34:45;;;;;;;2.00;1.90;;;;;;;23.08;25.10;94996.03;7292467;19;138022;-52
2022/01/21 04:37:13;;;;;;;3.10;2.10;;;;;;;23.05;25.12;94999.31;7292665;19;137464;-53
2022/01/21 04:39:48;;;;;;;2.33;2.17;;;;;;;23.15;25.54;95008.91;7278863;19;138711;-53
2022/01/21 04:47:32;;;;;;;1.73;1.63;;;;;;;23.16;25.83;95015.81;7294315;19;136713;-53
2022/01/21 04:49:58;;;;;;;2.27;1.53;;;;;;;22.97;25.63;95021.38;7278093;19;138420;-52
2022/01/21 04:52:24;;;;;;;2.80;1.00;;;;;;;22.64;25.31;95028.03;7293194;19;137528;-52
2022/01/21 04:54:51;;;;;;;1.30;1.20;;;;;;;22.44;25.63;95027.41;7293749;19;136923;-53
2022/01/21 04:57:17;;;;;;;2.10;0.93;;;;;;;22.38;26.19;95027.84;7280960;19;138184;-53
2022/01/21 04:59:43;;;;;;;1.23;1.10;;;;;;;22.54;25.50;95037.06;7287556;19;138140;-54
2022/01/21 05:02:09;;;;;;;1.10;1.10;;;;;;;22.59;26.82;95044.13;7280519;19;137173;-56
2022/01/21 05:04:35;;;;;;;1.33;1.23;;;;;;;22.63;26.63;95039.75;7290335;19;137785;-53
2022/01/21 05:07:04;;;;;;;1.93;1.30;;;;;;;22.85;27.78;95047.81;7288024;19;137409;-55
2022/01/21 05:09:32;;;;;;;2.70;1.40;;;;;;;22.95;27.62;95055.53;7290020;19;137756;-53
2022/01/21 05:12:07;;;;;;;3.43;1.20;;;;;;;23.02;26.90;95050.56;7279599;19;139203;-58
2022/01/21 05:15:08;;;;;;;1.93;1.20;;;;;;;23.07;27.55;95054.97;7290845;19;138049;-55
2022/01/21 05:17:22;;;;;;;2.70;1.27;;;;;;;23.11;27.68;95058.59;7293992;19;137552;-53
2022/01/21 05:19:48;;;;;;;3.07;2.00;;;;;;;23.00;27.31;95066.06;7298031;19;137618;-56
2022/01/21 05:22:13;;;;;;;3.37;2.80;;;;;;;22.88;27.30;95070.38;7284759;19;137790;-56
2022/01/21 05:24:39;;;;;;;2.80;2.60;;;;;;;22.85;27.59;95066.44;7299413;19;138652;-52
2022/01/21 05:27:06;;;;;;;3.77;2.40;;;;;;;22.87;27.73;95071.47;7298611;19;137078;-53
2022/01/21 05:29:33;;;;;;;2.57;2.37;;;;;;;22.85;27.47;95074.44;7298214;19;137095;-53
2022/01/21 05:32:00;;;;;;;2.87;2.50;;;;;;;22.85;27.05;95076.31;7299223;19;137524;-52
2022/01/21 05:34:26;;;;;;;3.17;2.87;;;;;;;22.84;27.12;95093.38;7285201;19;139363;-52
2022/01/21 05:36:52;;;;;;;4.43;2.70;;;;;;;22.83;26.79;95094.47;7298095;19;137681;-52
2022/01/21 05:39:18;;;;;;;2.80;2.60;;;;;;;22.83;26.85;95102.44;7298975;19;136907;-53
2022/01/21 05:41:48;;;;;;;3.00;2.80;;;;;;;22.81;27.38;95094.72;7297041;19;137057;-52
2022/01/21 05:46:56;;;;;;;2.70;2.50;;;;;;;22.78;26.81;95113.97;7298923;19;137939;-53
2022/01/21 05:49:22;;;;;;;3.20;3.00;;;;;;;22.77;27.24;95118.53;7297336;19;137103;-52
2022/01/21 05:51:48;;;;;;;3.97;3.60;;;;;;;22.73;27.36;95125.56;7298446;19;138306;-53
2022/01/21 05:54:14;;;;;;;2.70;2.50;;;;;;;22.65;27.45;95120.13;7297468;19;137475;-52
2022/01/21 05:56:40;;;;;;;3.10;2.83;;;;;;;22.60;26.88;95125.59;7284446;19;138171;-53
2022/01/21 05:59:07;;;;;;;3.73;3.43;;;;;;;22.57;27.17;95140.28;7297378;19;137652;-52
2022/01/21 06:01:34;;;;;;;2.83;2.63;;;;;;;22.57;26.99;95140.28;7292644;19;137527;-53
2022/01/21 06:04:01;;;;;;;3.50;3.20;;;;;;;22.57;27.27;95144.84;7293351;19;137889;-53
2022/01/21 06:06:26;;;;;;;3.00;2.80;;;;;;;22.55;26.94;95160.31;7275549;19;137741;-53
2022/01/21 06:08:52;;;;;;;3.40;3.20;;;;;;;22.50;27.22;95148.66;7291620;19;137745;-53
2022/01/21 06:11:17;;;;;;;3.70;3.40;;;;;;;22.49;27.11;95156.97;7292381;19;137217;-56
2022/01/21 06:13:45;;;;;;;3.13;2.93;;;;;;;22.51;26.74;95168.91;7292324;19;137343;-53
2022/01/21 06:16:11;;;;;;;3.00;2.80;;;;;;;22.49;26.48;95168.41;7294932;19;137493;-53
2022/01/21 06:18:37;;;;;;;3.57;3.33;;;;;;;22.46;26.54;95170.88;7282906;19;137333;-52
2022/01/21 06:21:02;;;;;;;3.80;3.50;;;;;;;22.43;27.13;95188.22;7295967;19;136804;-52
2022/01/21 06:23:28;;;;;;;3.00;2.80;;;;;;;22.40;27.04;95190.72;7297398;19;137527;-52
2022/01/21 06:25:54;;;;;;;2.37;2.27;;;;;;;22.41;26.99;95195.72;7298217;19;137523;-54
2022/01/21 06:28:19;;;;;;;3.40;3.20;;;;;;;22.40;26.39;95199.47;7282762;19;136847;-53
2022/01/21 06:30:45;;;;;;;3.10;2.50;;;;;;;22.36;26.49;95206.50;7296800;19;137580;-53
2022/01/21 06:33:10;;;;;;;3.17;2.93;;;;;;;22.31;26.62;95206.56;7296641;19;137029;-53
2022/01/21 06:35:36;;;;;;;3.43;2.77;;;;;;;22.34;26.41;95210.50;7293990;19;137812;-53
2022/01/21 06:38:02;;;;;;;2.83;2.63;;;;;;;22.35;26.93;95210.25;7297257;19;137529;-52
2022/01/21 06:40:27;;;;;;;3.00;2.80;;;;;;;22.33;26.87;95220.38;7283095;19;138998;-53
2022/01/21 06:42:53;;;;;;;3.37;3.07;;;;;;;22.32;26.50;95224.13;7296032;19;137757;-52
2022/01/21 06:45:20;;;;;;;2.97;2.77;;;;;;;22.34;26.81;95226.47;7295864;19;137489;-52
2022/01/21 06:47:46;;;;;;;2.90;2.70;;;;;;;22.34;26.81;95227.31;7296173;19;136850;-52
2022/01/21 06:50:12;;;;;;;2.97;2.77;;;;;;;22.32;26.43;95234.75;7282435;19;137036;-55
2022/01/21 06:52:38;;;;;;;2.90;2.70;;;;;;;22.28;26.28;95233.00;7296295;19;137596;-54
2022/01/21 06:55:04;;;;;;;2.87;2.67;;;;;;;22.29;26.26;95235.34;7294288;19;136890;-54
2022/01/21 06:57:30;;;;;;;3.97;3.67;;;;;;;22.34;25.73;95242.44;7295503;19;137148;-52
2022/01/21 06:59:56;;;;;;;3.00;2.80;;;;;;;22.33;26.08;95244.31;7296679;19;137021;-53
2022/01/21 07:02:22;;;;;;;4.30;4.00;;;;;;;22.32;26.31;95249.94;7280140;19;137765;-52
2022/01/21 07:04:49;;;;;;;6.03;5.53;;;;;;;22.33;26.12;95254.19;7295009;19;138014;-51
2022/01/21 07:07:16;;;;;;;6.87;6.27;;;;;;;22.32;26.61;95261.38;7292718;19;137708;-52
2022/01/21 07:09:42;;;;;;;7.60;7.00;;;;;;;22.32;26.22;95261.38;7296070;19;137989;-53
2022/01/21 07:12:08;;;;;;;7.50;6.90;;;;;;;22.27;26.46;95264.16;7282001;19;137787;-54
2022/01/21 07:14:34;;;;;;;6.83;6.33;;;;;;;22.20;26.28;95274.41;7295990;19;138516;-53
2022/01/21 07:17:00;;;;;;;6.90;6.40;;;;;;;22.24;26.69;95264.75;7295743;19;136787;-53
2022/01/21 07:19:25;;;;;;;6.80;6.30;;;;;;;22.25;26.50;95276.19;7294837;19;136975;-52
2022/01/21 07:21:51;;;;;;;7.47;6.90;;;;;;;22.19;26.59;95275.50;7293274;19;137582;-53
2022/01/21 07:24:16;;;;;;;7.20;6.50;;;;;;;22.18;26.12;95281.91;7281633;19;137121;-53
2022/01/21 07:26:42;;;;;;;6.70;6.20;;;;;;;22.22;26.58;95293.53;7294494;19;137020;-53
2022/01/21 07:29:08;;;;;;;6.23;5.73;;;;;;;22.19;26.02;95294.13;7295634;19;136885;-53
2022/01/21 07:31:33;;;;;;;5.97;5.47;;;;;;;22.17;26.56;95296.25;7294481;19;137299;-55
2022/01/21 07:34:01;;;;;;;8.23;6.47;;;;;;;22.18;26.30;95293.34;7293211;19;137499;-53
2022/01/21 07:36:27;;;;;;;6.57;5.87;;;;;;;22.19;25.93;95302.09;7286736;19;137019;-53
2022/01/21 07:38:53;;;;;;;5.80;5.30;;;;;;;22.21;25.85;95297.28;7295444;19;137604;-52
2022/01/21 07:41:19;;;;;;;5.90;5.40;;;;;;;22.22;26.01;95304.16;7292955;19;136955;-52
2022/01/21 07:43:44;;;;;;;5.63;5.23;;;;;;;22.24;25.97;95306.53;7295142;19;138213;-52
2022/01/21 07:46:10;;;;;;;5.33;4.90;;;;;;;22.52;26.86;95308.94;7280491;19;137625;-52
2022/01/21 07:48:35;;;;;;;5.27;4.87;;;;;;;22.32;26.45;95311.97;7293977;19;136932;-52
2022/01/21 07:51:01;;;;;;;5.10;4.70;;;;;;;22.25;26.54;95310.78;7293175;19;137149;-53
2022/01/21 07:53:26;;;;;;;5.10;4.70;;;;;;;22.02;26.48;95275.22;7294919;19;137513;-52
2022/01/21 07:55:52;;;;;;;5.53;5.10;;;;;;;22.18;25.89;95308.50;7294822;19;137602;-52
2022/01/21 07:58:19;;;;;;;4.83;4.43;;;;;;;22.17;25.87;95312.22;7282078;19;137759;-53
2022/01/21 08:00:45;;;;;;;5.07;4.57;;;;;;;22.14;26.67;95321.59;7294900;19;137974;-53
2022/01/21 08:03:10;;;;;;;5.07;4.67;;;;;;;22.15;26.11;95323.16;7293860;19;137956;-53
2022/01/21 08:05:36;;;;;;;5.80;5.30;;;;;;;22.15;26.58;95330.34;7293688;19;137729;-52
2022/01/21 08:08:03;;;;;;;5.63;5.13;;;;;;;22.13;26.67;95321.88;7281821;19;139109;-52
2022/01/21 08:10:31;;;;;;;5.20;4.80;;;;;;;22.06;26.39;95324.94;7293618;19;139846;-54
2022/01/21 08:12:56;;;;;;;5.33;4.83;;;;;;;22.13;26.17;95343.16;7293894;19;137410;-54
2022/01/21 08:15:22;;;;;;;5.43;5.00;;;;;;;22.12;26.18;95342.38;7293501;19;136727;-53
2022/01/21 08:17:48;;;;;;;5.47;5.07;;;;;;;22.08;26.08;95335.28;7292628;19;137242;-53
2022/01/21 08:20:13;;;;;;;5.50;5.00;;;;;;;22.13;26.56;95341.28;7279535;19;137107;-54
2022/01/21 08:22:39;;;;;;;5.27;4.77;;;;;;;22.14;26.43;95342.09;7291971;19;136992;-52
2022/01/21 08:25:08;;;;;;;4.67;4.27;;;;;;;22.15;26.18;95354.31;7293271;19;137465;-52
2022/01/21 08:27:34;;;;;;;5.70;5.20;;;;;;;22.13;25.84;95349.28;7293261;19;136939;-53
2022/01/21 08:29:59;;;;;;;6.47;5.87;;;;;;;22.13;26.33;95356.47;7279604;19;138091;-52
2022/01/21 08:32:25;;;;;;;7.70;5.17;;;;;;;22.12;26.41;95353.03;7292066;19;138288;-53
2022/01/21 08:34:50;;;;;;;6.20;5.70;;;;;;;22.13;26.41;95356.47;7300322;19;136874;-53
2022/01/21 08:37:17;;;;;;;5.40;5.00;;;;;;;22.07;26.02;95352.31;7299958;19;137132;-52
2022/01/21 08:39:43;;;;;;;6.00;5.50;;;;;;;22.09;26.31;95368.78;7299150;19;137125;-54
2022/01/21 08:42:10;;;;;;;5.27;4.87;;;;;;;22.11;26.31;95364.75;7284159;19;137975;-53
2022/01/21 08:44:36;;;;;;;5.87;5.37;;;;;;;22.12;26.50;95362.88;7300036;19;136880;-53
2022/01/21 08:47:02;;;;;;;6.47;5.87;;;;;;;22.07;25.85;95345.13;7299575;19;137657;-53
2022/01/21 08:49:28;;;;;;;5.70;5.20;;;;;;;22.09;25.72;95348.28;7300627;19;138144;-53
2022/01/21 08:51:56;;;;;;;5.63;5.13;;;;;;;22.09;26.06;95337.66;7287418;19;139301;-57
2022/01/21 08:54:23;;;;;;;6.60;6.00;;;;;;;22.07;26.13;95333.69;7299808;19;137628;-54
2022/01/21 08:56:52;;;;;;;5.20;4.80;;;;;;;22.09;26.35;95344.84;7300477;19;136701;-54
2022/01/21 08:59:18;;;;;;;5.47;5.00;;;;;;;22.10;26.36;95351.75;7299553;19;136958;-53
2022/01/21 09:01:48;;;;;;;5.20;4.80;;;;;;;22.09;26.06;95363.47;7297921;19;138429;-53
2022/01/21 09:04:18;;;;;;;5.27;4.87;;;;;;;22.09;26.32;95369.56;7286202;19;136800;-54
2022/01/21 09:06:46;;;;;;;5.43;4.93;;;;;;;22.07;26.34;95369.09;7297662;19;136930;-54
2022/01/21 09:09:12;;;;;;;6.17;5.67;;;;;;;22.07;25.93;95365.63;7299018;19;137867;-55
2022/01/21 09:11:38;;;;;;;6.17;5.67;;;;;;;22.09;25.76;95350.16;7299821;19;136926;-54
2022/01/21 09:14:03;;;;;;;5.47;4.97;;;;;;;22.08;26.32;95351.25;7285691;19;137793;-53
2022/01/21 09:16:29;;;;;;;5.73;5.30;;;;;;;22.03;26.11;95340.66;7299832;19;138113;-53
2022/01/21 09:18:55;;;;;;;6.60;6.00;;;;;;;22.05;25.63;95344.63;7298806;19;138168;-53
2022/01/21 09:21:25;;;;;;;5.47;4.97;;;;;;;22.05;25.66;95335.88;7299586;19;138556;-54
2022/01/21 09:23:52;;;;;;;5.67;5.17;;;;;;;22.09;26.25;95328.88;7299576;19;137149;-54
2022/01/21 09:26:19;;;;;;;5.67;5.17;;;;;;;22.08;25.97;95329.97;7284851;19;136823;-56
2022/01/21 09:28:45;;;;;;;6.03;5.53;;;;;;;22.01;26.02;95310.91;7299192;19;137240;-53
2022/01/21 09:31:11;;;;;;;5.80;5.30;;;;;;;22.06;25.77;95310.84;7298925;19;138427;-54
2022/01/21 09:33:38;;;;;;;6.17;5.57;;;;;;;22.05;25.77;95302.06;7297941;19;137009;-54
2022/01/21 09:36:04;;;;;;;5.90;5.40;;;;;;;22.05;25.61;95285.31;7285527;19;136992;-53
2022/01/21 09:38:30;;;;;;;5.47;5.07;;;;;;;22.04;25.87;95275.72;7298047;19;137559;-52
2022/01/21 09:40:56;;;;;;;6.07;5.50;;;;;;;22.05;25.93;95282.66;7297399;19;137375;-52
2022/01/21 09:43:23;;;;;;;6.47;5.97;;;;;;;22.03;25.65;95274.94;7298072;19;137522;-54
2022/01/21 09:45:52;;;;;;;6.40;5.90;;;;;;;22.05;26.25;95283.44;7298896;19;137499;-53
2022/01/21 09:48:29;;;;;;;6.07;5.57;;;;;;;22.07;25.80;95288.47;7284238;19;138629;-53
2022/01/21 09:50:59;;;;;;;6.40;5.90;;;;;;;22.05;25.81;95291.44;7298046;19;137218;-53
2022/01/21 09:53:28;;;;;;;6.90;6.30;;;;;;;22.06;26.18;95286.91;7296561;19;137262;-53
2022/01/21 09:55:59;;;;;;;7.20;6.50;;;;;;;22.06;26.19;95290.34;7297262;19;137054;-53
2022/01/21 09:58:27;;;;;;;7.20;6.60;;;;;;;22.03;26.38;95274.94;7283740;19;137362;-52
2022/01/21 10:00:56;;;;;;;8.50;6.97;;;;;;;22.06;25.82;95285.03;7298513;19;137417;-55
2022/01/21 10:03:22;;;;;;;7.97;7.37;;;;;;;21.99;25.94;95283.78;7296326;19;138161;-53
2022/01/21 10:05:49;;;;;;;8.03;7.43;;;;;;;22.03;26.16;95277.59;7296405;19;137814;-52
2022/01/21 10:08:15;;;;;;;7.43;6.83;;;;;;;22.03;26.26;95282.91;7293160;19;136880;-53
2022/01/21 10:10:42;;;;;;;7.93;6.90;;;;;;;22.04;26.18;95273.06;7290276;19;137171;-53
2022/01/21 10:13:09;;;;;;;8.23;7.53;;;;;;;22.06;26.09;95282.34;7298395;19;138067;-53
2022/01/21 10:15:37;;;;;;;7.50;6.90;;;;;;;22.05;25.58;95275.47;7297773;19;137331;-53
2022/01/21 10:18:18;;;;;;;7.97;7.27;;;;;;;21.99;26.03;95265.94;7297173;19;137871;-56
2022/01/21 10:21:10;;;;;;;7.70;6.90;;;;;;;22.05;26.02;95272.81;7283874;19;137462;-54
2022/01/21 10:23:39;;;;;;;6.93;6.43;;;;;;;22.04;25.41;95262.44;7296608;19;137960;-53
2022/01/21 10:26:08;;;;;;;7.73;7.00;;;;;;;22.04;25.64;95267.75;7295689;19;137103;-53
2022/01/21 10:28:36;;;;;;;7.37;6.77;;;;;;;22.04;25.43;95262.44;7296575;19;137266;-54
2022/01/21 10:31:16;;;;;;;8.30;7.50;;;;;;;22.03;25.47;95264.28;7283179;19;138131;-54
2022/01/21 10:33:46;;;;;;;7.37;6.77;;;;;;;22.03;25.51;95252.88;7298312;19;137429;-53
2022/01/21 10:36:16;;;;;;;7.03;6.43;;;;;;;21.75;25.47;95215.56;7297418;19;136969;-54
2022/01/21 10:38:47;;;;;;;7.73;7.03;;;;;;;21.83;25.34;95222.06;7295610;19;137563;-55
2022/01/21 10:41:15;;;;;;;7.10;6.50;;;;;;;22.00;25.57;95242.78;7296465;19;137430;-54
2022/01/21 10:43:42;;;;;;;8.40;7.67;;;;;;;21.97;25.22;95256.69;7284541;19;137206;-54
2022/01/21 10:46:08;;;;;;;8.30;7.60;;;;;;;22.03;25.21;95250.19;7295763;19;136982;-53
2022/01/21 10:48:57;;;;;;;8.13;7.50;;;;;;;22.01;25.76;95252.38;7297893;19;138007;-55
2022/01/21 10:51:25;;;;;;;8.83;8.07;;;;;;;21.96;25.34;95236.47;7296378;19;137433;-53
2022/01/21 10:53:55;;;;;;;8.63;7.93;;;;;;;21.99;25.71;95243.88;7282001;19;138156;-54
2022/01/21 10:56:21;;;;;;;9.40;8.70;;;;;;;21.99;25.38;95246.53;7295656;19;137474;-53
2022/01/21 10:58:56;;;;;;;9.37;8.57;;;;;;;22.00;25.15;95248.91;7296628;19;136792;-53
2022/01/21 11:01:27;;;;;;;10.10;9.10;;;;;;;22.00;25.32;95232.13;7295007;19;137784;-54
2022/01/21 11:04:11;;;;;;;8.60;7.90;;;;;;;22.00;25.01;95232.13;7283039;19;137449;-53
2022/01/21 11:06:50;;;;;;;10.13;8.43;;;;;;;21.99;25.32;95227.91;7293017;19;137054;-53
2022/01/21 11:09:21;;;;;;;8.40;7.80;;;;;;;22.00;25.59;95226.81;7294684;19;137682;-54
2022/01/21 11:11:50;;;;;;;8.60;7.80;;;;;;;21.98;25.33;95218.34;7295899;19;138077;-53
2022/01/21 11:14:17;;;;;;;9.47;8.67;;;;;;;;;;7296489;19;137465;-54
2022/01/21 11:16:45;;;;;;;8.33;7.73;;;;;;;21.97;25.24;95211.44;7281024;19;137120;-53
2022/01/21 11:19:14;;;;;;;8.47;7.67;;;;;;;21.98;25.43;95207.72;7296407;19;137119;-53
2022/01/21 11:21:46;;;;;;;8.27;7.60;;;;;;;21.86;24.74;95200.22;7294693;19;138527;-53
2022/01/21 11:24:13;;;;;;;7.53;6.30;;;;;;;21.86;25.71;95187.72;7294865;19;137308;-53
2022/01/21 11:26:39;;;;;;;7.43;6.87;;;;;;;22.00;25.07;95209.00;7280772;19;137634;-54
2022/01/21 11:29:06;;;;;;;8.07;7.37;;;;;;;22.00;25.75;95216.19;7295262;19;137425;-55
2022/01/21 11:31:32;;;;;;;7.40;6.70;;;;;;;21.99;25.67;95204.75;7294128;19;137680;-52
2022/01/21 11:33:58;;;;;;;7.33;6.73;;;;;;;22.04;26.13;95212.66;7295929;19;137595;-52
2022/01/21 11:36:25;;;;;;;7.07;6.47;;;;;;;22.03;25.56;95204.97;7290792;19;136849;-54
2022/01/21 11:38:55;;;;;;;6.80;6.17;;;;;;;22.02;25.56;95206.84;7288892;19;140628;-53
2022/01/21 11:41:24;;;;;;;6.97;6.37;;;;;;;21.81;25.83;95176.34;7294216;19;137735;-54
2022/01/21 11:43:52;;;;;;;7.13;6.43;;;;;;;22.09;25.88;95217.91;7295181;19;137134;-53
2022/01/21 11:49:04;;;;;;;6.60;6.10;;;;;;;21.96;25.97;95201.91;7281276;19;136851;-56
2022/01/21 11:51:34;;;;;;;6.10;5.70;;;;;;;21.99;26.37;95215.41;7293988;19;137898;-54
2022/01/21 11:54:05;;;;;;;6.80;6.20;;;;;;;21.98;26.00;95223.66;7294029;19;136847;-54
2022/01/21 11:56:44;;;;;;;6.67;6.17;;;;;;;21.97;25.82;95216.78;7294340;19;136709;-54
2022/01/21 12:01:53;;;;;;;6.90;6.40;;;;;;;21.93;26.00;95205.94;7294347;19;137886;-53
2022/01/21 12:04:30;;;;;;;6.73;6.13;;;;;;;21.96;25.99;95216.00;7295399;19;137102;-53
2022/01/21 12:06:59;;;;;;;6.27;5.77;;;;;;;21.96;26.18;95210.66;7291643;19;137011;-53
2022/01/21 12:10:09;;;;;;;6.50;6.00;;;;;;;21.96;26.12;95220.53;7299358;19;137812;-56
2022/01/21 12:20:42;;;;;;;5.70;5.20;;;;;;;22.11;25.92;95209.63;7288166;19;139303;-53
2022/01/21 12:23:14;;;;;;;5.63;5.23;;;;;;;22.00;26.02;95200.22;7297771;19;137318;-55
2022/01/21 12:26:11;;;;;;;5.70;5.20;;;;;;;21.99;25.84;95204.75;7300676;19;137392;-54
2022/01/21 12:28:40;;;;;;;5.50;5.00;;;;;;;21.99;25.90;95203.97;7300447;19;137030;-53
2022/01/21 12:31:07;;;;;;;5.07;4.67;;;;;;;21.97;26.13;95208.78;7299754;19;137978;-54